Hatsu Ethic — VQFS4 — position and weather

sailwx.info

Track history (hours):
 
Tides and Currents Weather Stations Pressure Air Temp Water Temp Dewpoint Dewpoint Depression Visibility Wind Speed Wind Dir Waves Ship Positions

Hatsu Ethic

Last reported at 2017-Jan-22 07:34 UTC. Time now 2017-Jan-22 07:59 UTC.
Position N 35°25' E 139°47'.

Type: Cargo ship. MMSI: 235603000.

Date/timePositionNaut miles runAvg speedWind from/ knotsBaromVisibWave heightAir tempDewpointWater temp
2017-Jan-22 07:34N 35°25' E 139°47'1212.0
2017-Jan-22 06:33N 35°12' E 139°47'10 9.6
2017-Jan-22 05:33N 35°03' E 139°44'  
2017-Jan-13 05:32N 48°31' W 126°37'2020.8
2017-Jan-13 04:33N 48°31' W 126°06'2121.3
2017-Jan-13 03:33N 48°31' W 125°34'2221.0
2017-Jan-13 02:31N 48°31' W 125°01'2021.2
2017-Jan-13 01:33N 48°27' W 124°31'2222.0
2017-Jan-13 00:33N 48°18' W 124°00'2019.2
2017-Jan-12 23:32N 48°16' W 123°31'1212.2
2017-Jan-12 22:34N 48°23' W 123°17'1616.3
2017-Jan-12 21:33N 48°39' W 123°15'1413.8
2017-Jan-12 20:33N 48°51' W 123°04'1919.6
2017-Jan-12 19:33N 49°05' W 123°26'1616.0
2017-Jan-12 18:34N 49°19' W 123°15'7 6.7
2017-Jan-12 17:33N 49°17' W 123°05'0 0.0
2017-Jan-12 16:31N 49°17' W 123°05'0 0.0
2017-Jan-12 15:31N 49°17' W 123°05'0 0.0
2017-Jan-12 14:31N 49°17' W 123°05'0 0.0
2017-Jan-12 13:31N 49°17' W 123°05'0 0.0
2017-Jan-12 12:31N 49°17' W 123°05'0 0.0
2017-Jan-12 11:31N 49°17' W 123°05'0 0.0
2017-Jan-12 10:31N 49°17' W 123°05'0 0.0
2017-Jan-12 09:31N 49°17' W 123°05'0 0.0
2017-Jan-12 08:31N 49°17' W 123°05'  
Track history (hours):
 
Tides and Currents Weather Stations Pressure Air Temp Water Temp Dewpoint Dewpoint Depression Visibility Wind Speed Wind Dir Waves Ship Positions

Hatsu Ethic

Last reported at 2017-Jan-22 07:34 UTC. Time now 2017-Jan-22 07:59 UTC.
Position N 35°25' E 139°47'.

Type: Cargo ship. MMSI: 235603000.

Date/timePositionNaut miles runAvg speedWind from/ knotsBaromVisibWave heightAir tempDewpointWater temp
2017-Jan-22 07:34N 35°25' E 139°47'1212.0
2017-Jan-22 06:33N 35°12' E 139°47'10 9.6
2017-Jan-22 05:33N 35°03' E 139°44'  
2017-Jan-13 05:32N 48°31' W 126°37'2020.8
2017-Jan-13 04:33N 48°31' W 126°06'2121.3
2017-Jan-13 03:33N 48°31' W 125°34'2221.0
2017-Jan-13 02:31N 48°31' W 125°01'2021.2
2017-Jan-13 01:33N 48°27' W 124°31'2222.0
2017-Jan-13 00:33N 48°18' W 124°00'2019.2
2017-Jan-12 23:32N 48°16' W 123°31'1212.2
2017-Jan-12 22:34N 48°23' W 123°17'1616.3
2017-Jan-12 21:33N 48°39' W 123°15'1413.8
2017-Jan-12 20:33N 48°51' W 123°04'1919.6
2017-Jan-12 19:33N 49°05' W 123°26'1616.0
2017-Jan-12 18:34N 49°19' W 123°15'7 6.7
2017-Jan-12 17:33N 49°17' W 123°05'0 0.0
2017-Jan-12 16:31N 49°17' W 123°05'0 0.0
2017-Jan-12 15:31N 49°17' W 123°05'0 0.0
2017-Jan-12 14:31N 49°17' W 123°05'0 0.0
2017-Jan-12 13:31N 49°17' W 123°05'0 0.0
2017-Jan-12 12:31N 49°17' W 123°05'0 0.0
2017-Jan-12 11:31N 49°17' W 123°05'0 0.0
2017-Jan-12 10:31N 49°17' W 123°05'0 0.0
2017-Jan-12 09:31N 49°17' W 123°05'0 0.0
2017-Jan-12 08:31N 49°17' W 123°05'  

Dump ship's entire track history